Time;durP1;ratioP1;P1;durP2;ratioP2;P2;SDS_P1;SDS_P2;PMS_P1;PMS_P2;Temp;Humidity;BMP_temperature;BMP_pressure;BME280_temperature;BME280_humidity;BME280_pressure;Samples;Min_cycle;Max_cycle;Signal;HPM_P1;HPM_P2
2023/08/24 00:00:02;;;;;;;5.90;4.90;;;;;;;15.35;80.03;100059.17;218094;1257;140205;-67
2023/08/24 00:05:06;;;;;;;4.60;4.20;;;;;;;15.44;80.12;100055.27;217928;1259;139974;-67
2023/08/24 00:10:09;;;;;;;6.10;5.40;;;;;;;15.46;79.98;100058.30;218129;1257;139819;-67
2023/08/24 00:15:13;;;;;;;6.00;5.40;;;;;;;15.45;80.08;100052.65;217477;1258;140666;-67
2023/08/24 00:20:19;;;;;;;5.90;5.50;;;;;;;15.46;80.30;100050.34;218068;1258;212035;-67
2023/08/24 00:25:22;;;;;;;10.10;6.70;;;;;;;15.51;80.51;100055.48;217651;1260;139921;-66
2023/08/24 00:30:25;;;;;;;11.90;6.10;;;;;;;15.56;80.40;100056.14;218977;1258;140159;-67
2023/08/24 00:35:28;;;;;;;6.70;5.30;;;;;;;15.56;80.10;100059.31;217139;1260;141110;-69
2023/08/24 00:40:32;;;;;;;5.90;5.40;;;;;;;15.53;80.02;100059.20;218693;1259;139772;-70
2023/08/24 00:45:36;;;;;;;6.30;5.70;;;;;;;15.48;79.90;100060.34;220216;1258;141006;-71
2023/08/24 00:50:39;;;;;;;6.70;6.00;;;;;;;15.44;79.79;100059.89;217587;1259;140123;-70
2023/08/24 00:55:43;;;;;;;8.50;5.90;;;;;;;15.41;79.61;100061.16;217059;1260;139896;-69
2023/08/24 01:00:48;;;;;;;8.20;5.70;;;;;;;15.37;79.73;100060.48;220043;1258;140484;-70
2023/08/24 01:05:52;;;;;;;6.90;6.30;;;;;;;15.30;79.44;100061.71;219386;1257;140339;-68
2023/08/24 01:11:12;;;;;;;9.00;7.10;;;;;;;15.24;79.40;100061.00;217656;1257;140628;-68
2023/08/24 01:16:27;;;;;;;5.30;4.90;;;;;;;15.18;79.39;100061.75;218364;1258;139261;-68
2023/08/24 01:21:31;;;;;;;6.70;5.20;;;;;;;15.06;79.30;100057.02;217812;1259;140376;-67
2023/08/24 01:26:36;;;;;;;7.00;5.30;;;;;;;15.00;79.41;100055.73;217909;1259;141297;-68
2023/08/24 01:31:39;;;;;;;10.50;6.40;;;;;;;14.94;79.68;100052.38;217374;1258;139944;-68
2023/08/24 01:36:44;;;;;;;6.30;5.40;;;;;;;14.90;79.72;100052.50;218688;1259;140656;-66
2023/08/24 01:41:53;;;;;;;5.70;5.10;;;;;;;14.86;79.80;100050.69;217496;1259;139955;-65
2023/08/24 01:47:02;;;;;;;7.40;5.20;;;;;;;14.82;79.88;100049.69;217307;1259;140841;-66
2023/08/24 01:52:06;;;;;;;7.00;6.30;;;;;;;14.75;79.83;100048.59;217578;1259;139983;-66
2023/08/24 01:57:11;;;;;;;9.30;5.80;;;;;;;14.68;79.72;100049.66;217278;1262;140440;-68
2023/08/24 02:02:14;;;;;;;10.50;6.40;;;;;;;14.60;79.85;100044.39;217845;1259;141377;-67
2023/08/24 02:07:18;;;;;;;6.10;5.50;;;;;;;14.55;79.94;100042.23;217346;1260;140686;-67
2023/08/24 02:12:21;;;;;;;6.70;6.00;;;;;;;14.43;79.78;100042.52;218971;1258;140547;-70
2023/08/24 02:17:26;;;;;;;6.30;5.40;;;;;;;14.35;79.99;100046.45;217498;1259;140448;-70
2023/08/24 02:22:30;;;;;;;6.60;6.00;;;;;;;14.32;80.14;100041.86;217221;1258;140777;-69
2023/08/24 02:27:33;;;;;;;5.90;5.30;;;;;;;14.28;80.17;100043.80;217918;1258;139769;-69
2023/08/24 02:32:37;;;;;;;6.40;5.90;;;;;;;14.21;80.01;100038.95;217402;1259;142879;-69
2023/08/24 02:37:40;;;;;;;6.90;5.50;;;;;;;14.12;80.30;100040.61;217263;1257;140509;-69
2023/08/24 02:42:43;;;;;;;5.70;5.30;;;;;;;14.05;80.46;100041.17;218617;1259;140566;-67
2023/08/24 02:47:47;;;;;;;7.20;5.40;;;;;;;14.03;80.82;100038.22;220079;1258;140724;-67
2023/08/24 02:52:52;;;;;;;7.40;6.00;;;;;;;14.03;80.92;100037.47;219625;1257;141154;-66
2023/08/24 02:57:55;;;;;;;7.60;5.80;;;;;;;14.03;80.72;100035.69;219986;1257;140525;-69
2023/08/24 03:02:58;;;;;;;7.80;5.30;;;;;;;14.06;81.08;100034.27;218286;1259;139797;-67
2023/08/24 03:08:04;;;;;;;6.20;5.00;;;;;;;14.05;81.04;100029.16;217749;1259;139809;-67
2023/08/24 03:13:07;;;;;;;4.90;4.50;;;;;;;13.98;81.15;100030.55;219026;1259;139771;-67
2023/08/24 03:18:14;;;;;;;5.70;5.20;;;;;;;13.96;81.28;100030.66;217988;1259;140892;-65
2023/08/24 03:23:18;;;;;;;5.60;4.60;;;;;;;13.94;81.50;100030.38;217766;1259;141297;-66
2023/08/24 03:28:22;;;;;;;5.60;5.10;;;;;;;13.91;81.66;100027.66;218599;1257;139738;-67
2023/08/24 03:33:25;;;;;;;7.30;5.30;;;;;;;13.87;81.60;100025.19;217646;1257;140209;-66
2023/08/24 03:38:27;;;;;;;7.10;6.40;;;;;;;13.84;81.74;100023.77;217427;1259;140324;-66
2023/08/24 03:43:35;;;;;;;5.50;5.00;;;;;;;13.84;81.96;100022.90;217142;1259;143025;-68
2023/08/24 03:48:39;;;;;;;5.50;5.00;;;;;;;13.82;82.01;100023.77;217331;1259;140768;-69
2023/08/24 03:53:43;;;;;;;6.40;5.70;;;;;;;13.76;81.75;100022.05;217725;1262;140035;-68
2023/08/24 03:58:46;;;;;;;9.40;5.60;;;;;;;13.75;81.97;100020.65;217637;1259;139829;-66
2023/08/24 04:03:48;;;;;;;6.90;6.10;;;;;;;13.75;82.17;100025.27;218807;1259;153341;-66
2023/08/24 04:08:50;;;;;;;5.80;4.60;;;;;;;13.70;82.09;100027.83;217352;1257;139877;-65
2023/08/24 04:13:54;;;;;;;7.70;6.30;;;;;;;13.69;82.43;100030.87;218269;1259;139987;-66
2023/08/24 04:18:57;;;;;;;6.00;5.50;;;;;;;13.74;82.50;100028.80;218519;1259;140090;-66
2023/08/24 04:24:01;;;;;;;8.80;5.60;;;;;;;13.81;82.53;100036.15;217738;1258;139614;-67
2023/08/24 04:29:04;;;;;;;6.30;5.70;;;;;;;13.88;82.51;100034.04;219394;1259;141647;-67
2023/08/24 04:34:09;;;;;;;5.50;5.00;;;;;;;13.98;82.59;100039.59;217857;1260;139544;-67
2023/08/24 04:39:13;;;;;;;8.90;5.40;;;;;;;14.05;82.82;100043.87;218850;1257;140229;-67
2023/08/24 04:44:17;;;;;;;6.80;6.20;;;;;;;14.16;83.12;100040.98;219594;1259;140230;-69
2023/08/24 04:49:20;;;;;;;9.30;7.10;;;;;;;14.35;83.43;100043.84;220041;1257;140324;-70
2023/08/24 04:54:22;;;;;;;5.40;5.00;;;;;;;14.53;83.46;100041.57;220037;1259;139674;-69
2023/08/24 04:59:26;;;;;;;5.90;5.20;;;;;;;14.74;83.33;100035.06;218821;1259;139820;-68
2023/08/24 05:04:30;;;;;;;7.50;6.20;;;;;;;14.94;83.50;100034.98;217913;1262;140893;-69
2023/08/24 05:09:34;;;;;;;7.00;5.30;;;;;;;15.12;83.80;100034.48;217527;1259;139678;-68
2023/08/24 05:14:39;;;;;;;4.70;4.30;;;;;;;15.30;83.85;100032.08;219107;1259;139832;-69
2023/08/24 05:19:42;;;;;;;5.30;4.60;;;;;;;15.45;84.04;100034.96;217389;1259;140399;-68
2023/08/24 05:24:47;;;;;;;6.10;4.30;;;;;;;15.64;84.04;100031.39;218111;1259;143874;-69
2023/08/24 05:29:50;;;;;;;6.10;5.50;;;;;;;15.82;83.93;100031.61;217438;1259;140167;-68
2023/08/24 05:34:53;;;;;;;6.50;4.60;;;;;;;16.05;83.86;100031.05;217371;1259;140151;-68
2023/08/24 05:39:59;;;;;;;37.40;7.90;;;;;;;16.29;83.73;100024.02;218249;1259;140451;-70
2023/08/24 05:45:09;;;;;;;13.70;4.70;;;;;;;16.54;83.28;100027.99;217335;1262;140511;-69
2023/08/24 05:50:14;;;;;;;6.40;4.70;;;;;;;16.76;82.76;100022.58;217586;1260;139825;-69
2023/08/24 05:55:19;;;;;;;10.00;4.20;;;;;;;17.00;82.27;100026.69;217980;1262;140468;-68
2023/08/24 06:00:23;;;;;;;4.80;3.40;;;;;;;17.31;81.67;100025.13;217858;1259;140440;-68
2023/08/24 06:05:26;;;;;;;6.70;3.90;;;;;;;17.68;80.92;100028.30;217271;1259;139950;-68
2023/08/24 06:10:31;;;;;;;11.90;4.20;;;;;;;18.04;80.19;100037.84;218572;1258;141627;-69
2023/08/24 06:15:34;;;;;;;10.10;4.10;;;;;;;18.27;79.56;100042.27;217809;1259;140770;-69
2023/08/24 06:20:38;;;;;;;7.60;4.80;;;;;;;18.44;78.96;100046.59;217289;1259;140350;-68
2023/08/24 06:25:44;;;;;;;9.10;4.00;;;;;;;18.67;78.50;100041.83;217581;1258;584614;-69
2023/08/24 06:30:48;;;;;;;5.70;4.10;;;;;;;18.99;78.22;100042.73;219427;1262;140018;-69
2023/08/24 06:35:52;;;;;;;6.50;3.80;;;;;;;19.36;77.69;100043.48;220172;1259;140892;-70
2023/08/24 06:40:55;;;;;;;3.90;3.60;;;;;;;19.66;76.93;100037.76;220183;1262;140115;-69
2023/08/24 06:45:58;;;;;;;4.10;3.80;;;;;;;19.94;75.75;100030.50;220106;1258;140528;-69
2023/08/24 06:51:04;;;;;;;4.10;3.00;;;;;;;20.73;74.97;100030.11;219779;1259;139414;-68
2023/08/24 06:56:07;;;;;;;3.50;3.30;;;;;;;22.21;72.92;100029.33;219012;1258;140404;-69
2023/08/24 07:01:10;;;;;;;3.70;3.40;;;;;;;23.83;71.25;100032.02;218333;1259;141043;-69
2023/08/24 07:06:14;;;;;;;6.00;3.00;;;;;;;24.77;68.63;100032.86;217409;1259;139182;-67
2023/08/24 07:11:17;;;;;;;6.50;3.50;;;;;;;25.55;65.98;100027.73;218213;1260;139118;-68
2023/08/24 07:16:19;;;;;;;8.60;3.30;;;;;;;25.91;64.23;100032.18;218116;1259;139630;-67
2023/08/24 07:21:25;;;;;;;3.80;3.00;;;;;;;26.02;63.38;100040.39;217307;1258;140409;-66
2023/08/24 07:26:30;;;;;;;3.70;2.50;;;;;;;26.46;62.75;100041.90;217114;1259;139154;-67
2023/08/24 07:31:33;;;;;;;6.50;3.10;;;;;;;26.88;61.34;100040.81;217398;1259;138743;-66
2023/08/24 07:36:40;;;;;;;2.60;2.40;;;;;;;27.29;60.58;100050.48;217354;1262;138686;-65
2023/08/24 07:41:45;;;;;;;2.50;2.30;;;;;;;27.57;59.06;100048.88;217751;1259;138945;-66
2023/08/24 07:46:50;;;;;;;2.50;2.30;;;;;;;27.57;58.04;100048.06;218069;1259;139849;-65
2023/08/24 07:51:56;;;;;;;2.40;2.10;;;;;;;27.79;57.87;100046.26;217963;1259;140032;-66
2023/08/24 07:57:01;;;;;;;3.40;2.70;;;;;;;28.01;56.98;100052.11;217590;1258;138861;-67
2023/08/24 08:02:06;;;;;;;5.30;2.50;;;;;;;28.18;55.96;100052.31;217478;1260;139045;-68
2023/08/24 08:07:10;;;;;;;2.50;2.30;;;;;;;28.38;55.05;100055.55;217371;1258;139357;-67
2023/08/24 08:12:13;;;;;;;3.70;3.30;;;;;;;28.61;54.46;100050.03;217501;1259;139483;-68
2023/08/24 08:17:16;;;;;;;2.80;2.50;;;;;;;28.70;53.98;100046.88;218416;1259;139726;-68
2023/08/24 08:22:19;;;;;;;3.50;2.70;;;;;;;28.81;53.12;100046.09;219632;1259;139622;-68
2023/08/24 08:27:22;;;;;;;3.80;2.80;;;;;;;28.86;52.39;100049.05;218622;1259;140541;-71
2023/08/24 08:32:27;;;;;;;3.50;2.40;;;;;;;28.95;51.75;100048.39;218708;1259;138867;-70
2023/08/24 08:37:32;;;;;;;5.30;2.40;;;;;;;29.07;51.48;100052.61;217666;1262;139128;-70
2023/08/24 08:42:37;;;;;;;4.50;2.90;;;;;;;29.08;50.97;100052.42;217572;1259;138965;-68
2023/08/24 08:47:41;;;;;;;3.60;3.30;;;;;;;29.12;50.87;100053.15;217260;1259;138798;-68
2023/08/24 08:52:45;;;;;;;4.40;2.80;;;;;;;29.28;50.43;100050.43;217823;1259;139232;-68
2023/08/24 08:57:49;;;;;;;3.60;3.30;;;;;;;29.27;50.34;100049.85;218378;1260;139996;-69
2023/08/24 09:02:56;;;;;;;4.60;3.20;;;;;;;29.19;50.19;100048.09;218541;1259;140253;-69
2023/08/24 09:08:03;;;;;;;3.40;2.40;;;;;;;29.06;50.38;100047.02;218189;1262;139604;-68
2023/08/24 09:13:06;;;;;;;7.10;3.30;;;;;;;29.06;49.76;100050.73;217401;1259;138876;-69
2023/08/24 09:18:10;;;;;;;5.20;3.00;;;;;;;29.18;49.83;100052.98;217547;1259;139786;-68
2023/08/24 09:23:20;;;;;;;7.40;2.30;;;;;;;29.37;49.66;100055.67;217783;1259;140241;-69
2023/08/24 09:28:24;;;;;;;9.80;2.80;;;;;;;29.37;48.76;100048.23;217620;1259;140474;-67
2023/08/24 09:33:27;;;;;;;5.00;2.30;;;;;;;29.35;48.86;100043.95;217846;1259;139872;-67
2023/08/24 09:38:31;;;;;;;3.20;2.10;;;;;;;29.34;48.24;100050.50;217630;1259;139500;-67
2023/08/24 09:43:34;;;;;;;2.10;2.00;;;;;;;29.30;48.05;100049.00;217244;1259;140123;-68
2023/08/24 09:48:38;;;;;;;3.60;3.00;;;;;;;29.32;47.29;100040.20;217282;1259;139539;-68
2023/08/24 09:53:43;;;;;;;2.90;2.30;;;;;;;29.25;47.12;100041.57;217339;1259;141148;-66
2023/08/24 09:58:48;;;;;;;4.20;3.10;;;;;;;29.32;46.80;100034.16;216967;1259;139931;-66
2023/08/24 10:03:58;;;;;;;2.70;2.50;;;;;;;29.09;46.71;100037.46;218276;1262;139727;-68
2023/08/24 10:09:07;;;;;;;2.30;2.20;;;;;;;28.86;46.74;100041.05;217481;1260;139947;-67
2023/08/24 10:14:26;;;;;;;11.80;3.10;;;;;;;28.85;47.01;100039.85;218446;1260;138817;-68
2023/08/24 10:19:30;;;;;;;2.90;2.30;;;;;;;29.21;46.93;100043.44;217165;1260;139002;-68
2023/08/24 10:24:36;;;;;;;2.70;2.50;;;;;;;28.91;46.33;100049.10;218457;1262;140405;-69
2023/08/24 10:29:43;;;;;;;3.20;3.00;;;;;;;28.86;46.75;100042.77;218143;1260;140260;-69
2023/08/24 10:34:49;;;;;;;12.10;3.70;;;;;;;29.04;46.91;100039.59;218513;1259;139363;-72
2023/08/24 10:39:55;;;;;;;9.90;2.70;;;;;;;28.64;46.36;100041.81;218980;1262;140010;-72
2023/08/24 10:45:01;;;;;;;5.10;3.10;;;;;;;28.61;46.98;100037.83;217573;1262;139833;-67
2023/08/24 10:50:09;;;;;;;3.40;3.00;;;;;;;29.07;47.08;100029.80;219978;1259;142070;-70
2023/08/24 10:55:29;;;;;;;3.90;2.30;;;;;;;29.38;45.57;100017.83;217434;1259;139970;-68
2023/08/24 11:00:33;;;;;;;3.40;2.80;;;;;;;29.19;45.22;100015.38;218832;1259;139389;-67
2023/08/24 11:05:37;;;;;;;10.40;3.30;;;;;;;29.12;45.79;100003.82;218180;1259;141355;-68
2023/08/24 11:10:46;;;;;;;2.80;2.30;;;;;;;28.90;45.68;99997.91;218036;1258;139796;-65
2023/08/24 11:15:57;;;;;;;5.90;2.70;;;;;;;28.86;45.49;99995.36;218209;1262;139328;-66
2023/08/24 11:21:04;;;;;;;;;;;;;;;28.77;45.82;99992.45;217331;1259;139710;-66
2023/08/24 11:26:10;;;;;;;5.70;2.60;;;;;;;28.67;45.48;99993.80;217796;1260;126131;-66
2023/08/24 11:31:17;;;;;;;2.60;2.40;;;;;;;28.92;45.35;99993.88;218246;1259;139031;-68
2023/08/24 11:36:24;;;;;;;4.10;2.60;;;;;;;29.13;44.70;99986.89;217167;1260;139671;-66
2023/08/24 11:41:27;;;;;;;;;;;;;;;29.24;44.44;99985.05;217848;1259;139194;-66
2023/08/24 11:46:37;;;;;;;3.00;2.00;;;;;;;29.34;43.88;99980.61;217494;1262;126292;-65
2023/08/24 11:51:42;;;;;;;2.40;2.10;;;;;;;29.55;43.95;99976.36;217362;1261;138986;-67
2023/08/24 11:56:48;;;;;;;17.20;3.50;;;;;;;29.64;43.64;99969.06;217600;1260;140397;-67
2023/08/24 12:01:54;;;;;;;;;;;;;;;29.72;43.39;99971.81;217274;1262;140202;-67
2023/08/24 12:06:59;;;;;;;25.30;3.80;;;;;;;29.34;43.43;99977.32;218097;1260;125614;-68
2023/08/24 12:12:01;;;;;;;4.70;2.20;;;;;;;29.32;43.42;99972.48;217130;1259;139320;-68
2023/08/24 12:17:10;;;;;;;3.00;2.80;;;;;;;29.41;43.41;99967.21;219210;1259;140900;-68
2023/08/24 12:22:17;;;;;;;2.40;2.20;;;;;;;29.55;43.45;99966.95;217649;1262;139281;-68
2023/08/24 12:27:24;;;;;;;5.50;2.70;;;;;;;29.63;42.70;99962.76;217236;1263;139563;-67
2023/08/24 12:32:52;;;;;;;7.10;3.00;;;;;;;29.65;42.37;99952.98;218187;1262;139503;-68
2023/08/24 12:37:56;;;;;;;2.70;1.90;;;;;;;29.64;42.27;99949.19;218818;1259;139827;-68
2023/08/24 12:42:59;;;;;;;5.90;2.40;;;;;;;29.63;41.87;99937.86;218518;1262;140059;-66
2023/08/24 12:48:02;;;;;;;2.10;2.00;;;;;;;29.68;41.60;99928.63;219988;1259;141291;-68
2023/08/24 12:53:08;;;;;;;2.80;2.30;;;;;;;29.67;41.82;99930.88;218813;1260;139640;-69
2023/08/24 12:58:10;;;;;;;5.30;2.40;;;;;;;29.55;41.48;99930.45;217269;1262;139830;-67
2023/08/24 13:03:13;;;;;;;2.80;2.10;;;;;;;29.57;41.42;99924.30;218722;1262;139164;-67
2023/08/24 13:08:16;;;;;;;2.60;2.00;;;;;;;29.73;41.70;99919.88;217353;1258;139104;-67
2023/08/24 13:13:20;;;;;;;5.00;2.50;;;;;;;29.84;41.43;99921.77;218622;1261;139914;-67
2023/08/24 13:18:24;;;;;;;1.80;1.60;;;;;;;29.74;41.08;99912.52;217761;1262;139106;-68
2023/08/24 13:23:28;;;;;;;5.10;2.40;;;;;;;29.76;40.88;99902.05;217585;1261;140016;-69
2023/08/24 13:28:30;;;;;;;8.10;2.60;;;;;;;29.64;40.65;99891.88;218807;1260;140958;-69
2023/08/24 13:33:33;;;;;;;3.40;1.60;;;;;;;29.41;40.37;99902.09;217348;1262;138907;-69
2023/08/24 13:38:38;;;;;;;1.90;1.80;;;;;;;29.37;40.67;99904.10;217686;1259;139385;-67
2023/08/24 13:43:44;;;;;;;2.60;2.00;;;;;;;29.44;40.67;99896.61;217323;1262;139117;-70
2023/08/24 13:48:46;;;;;;;18.10;8.90;;;;;;;29.41;40.28;99892.83;217584;1260;140448;-68
2023/08/24 13:53:50;;;;;;;3.30;2.40;;;;;;;29.31;40.59;99887.34;217009;1263;139236;-67
2023/08/24 13:58:53;;;;;;;2.80;1.90;;;;;;;29.26;40.67;99884.47;217907;1262;140101;-68
2023/08/24 14:03:57;;;;;;;35.00;3.40;;;;;;;29.16;40.64;99881.10;217505;1262;138959;-69
2023/08/24 14:09:00;;;;;;;4.50;1.70;;;;;;;29.06;40.80;99879.98;217725;1262;139058;-68
2023/08/24 14:14:03;;;;;;;4.60;1.60;;;;;;;28.80;40.57;99880.65;217659;1263;139416;-68
2023/08/24 14:19:06;;;;;;;2.80;1.80;;;;;;;28.63;40.80;99880.44;217005;1262;138820;-70
2023/08/24 14:24:10;;;;;;;4.20;2.30;;;;;;;28.51;40.91;99872.73;219035;1261;138912;-70
2023/08/24 14:29:15;;;;;;;2.50;2.20;;;;;;;28.51;40.98;99877.28;217145;1259;139406;-68
2023/08/24 14:34:21;;;;;;;12.90;2.20;;;;;;;28.43;41.08;99879.18;219562;1259;138711;-69
2023/08/24 14:39:24;;;;;;;3.10;2.40;;;;;;;28.14;41.52;99876.25;218589;1260;140340;-68
2023/08/24 14:44:30;;;;;;;5.30;2.20;;;;;;;28.08;41.52;99868.65;219244;1261;138762;-68
2023/08/24 14:49:34;;;;;;;2.60;2.10;;;;;;;28.13;41.44;99865.34;220139;1257;140103;-69
2023/08/24 14:54:37;;;;;;;2.70;2.40;;;;;;;28.15;41.64;99856.31;219726;1257;139010;-69
2023/08/24 14:59:41;;;;;;;2.10;1.80;;;;;;;28.14;40.96;99847.90;220087;1257;138961;-68
2023/08/24 15:04:45;;;;;;;3.70;1.80;;;;;;;28.11;41.28;99845.07;218412;1257;139237;-68
2023/08/24 15:09:50;;;;;;;8.10;2.50;;;;;;;28.03;41.04;99843.05;219296;1257;140290;-68
2023/08/24 15:15:03;;;;;;;2.30;2.00;;;;;;;27.89;41.53;99841.54;217707;1257;138937;-69
2023/08/24 15:20:07;;;;;;;3.90;2.50;;;;;;;27.75;41.68;99840.05;217360;1257;138898;-68
2023/08/24 15:25:10;;;;;;;4.10;2.40;;;;;;;27.61;42.19;99833.84;218153;1257;139799;-68
2023/08/24 15:30:13;;;;;;;3.60;1.70;;;;;;;27.35;42.38;99826.14;217657;1261;139773;-70
2023/08/24 15:35:16;;;;;;;3.00;2.20;;;;;;;27.17;42.98;99817.00;217705;1257;139787;-69
2023/08/24 15:40:20;;;;;;;5.20;2.10;;;;;;;27.14;43.12;99807.29;217768;1262;139959;-70
2023/08/24 15:45:24;;;;;;;2.80;2.10;;;;;;;27.12;43.00;99805.13;217849;1261;139760;-68
2023/08/24 15:50:27;;;;;;;;;;;;;;;27.08;42.51;99797.95;217832;1262;139066;-68
2023/08/24 15:55:31;;;;;;;2.40;2.20;;;;;;;27.02;42.48;99796.91;218552;1260;125516;-68
2023/08/24 16:00:35;;;;;;;5.20;2.00;;;;;;;27.01;43.45;99794.61;217906;1261;139392;-68
2023/08/24 16:05:40;;;;;;;3.20;2.50;;;;;;;26.97;44.18;99804.39;218239;1257;139883;-69
2023/08/24 16:10:47;;;;;;;3.20;2.30;;;;;;;26.84;45.07;99812.33;218269;1257;140589;-68
2023/08/24 16:15:51;;;;;;;2.10;1.90;;;;;;;26.75;45.79;99814.30;218036;1258;140153;-68
2023/08/24 16:20:54;;;;;;;22.90;9.10;;;;;;;26.67;45.77;99808.85;217944;1261;139595;-68
2023/08/24 16:25:57;;;;;;;12.80;8.70;;;;;;;26.52;46.39;99806.02;218323;1260;139676;-68
2023/08/24 16:31:01;;;;;;;12.70;7.80;;;;;;;26.31;46.60;99805.61;218645;1257;143607;-67
2023/08/24 16:36:04;;;;;;;6.60;4.70;;;;;;;26.05;47.59;99804.52;218376;1257;139628;-65
2023/08/24 16:41:07;;;;;;;12.60;4.70;;;;;;;25.76;48.33;99793.95;217536;1258;140985;-67
2023/08/24 16:46:09;;;;;;;3.80;3.40;;;;;;;25.45;48.74;99789.55;219189;1257;138726;-72
2023/08/24 16:51:12;;;;;;;6.00;3.60;;;;;;;25.11;49.35;99782.09;217530;1257;139949;-69
2023/08/24 16:56:16;;;;;;;4.10;3.40;;;;;;;24.83;50.29;99785.39;218814;1257;139441;-70
2023/08/24 17:01:19;;;;;;;20.60;4.20;;;;;;;24.56;50.64;99780.38;218607;1260;139099;-66
2023/08/24 17:06:25;;;;;;;;;;;;;;;24.31;51.28;99770.00;217756;1262;140164;-68
2023/08/24 17:11:29;;;;;;;10.30;2.80;;;;;;;24.01;51.86;99769.69;218563;1257;125232;-68
2023/08/24 17:16:33;;;;;;;5.30;3.20;;;;;;;23.79;52.82;99775.29;217474;1257;139906;-68
2023/08/24 17:21:37;;;;;;;5.70;3.50;;;;;;;23.59;53.99;99769.46;217995;1257;138453;-66
2023/08/24 17:26:41;;;;;;;5.80;3.70;;;;;;;23.28;55.15;99763.82;218035;1257;139560;-68
2023/08/24 17:31:45;;;;;;;5.10;3.70;;;;;;;23.04;55.31;99756.96;217464;1260;141141;-68
2023/08/24 17:36:50;;;;;;;5.50;3.30;;;;;;;22.82;56.00;99763.20;217913;1257;139732;-67
2023/08/24 17:41:52;;;;;;;3.70;3.20;;;;;;;22.60;56.31;99777.71;217327;1257;138711;-67
2023/08/24 17:46:55;;;;;;;4.70;3.20;;;;;;;22.26;56.76;99787.02;217650;1262;139045;-66
2023/08/24 17:51:59;;;;;;;13.00;3.60;;;;;;;22.01;57.74;99799.31;217709;1257;139406;-66
2023/08/24 17:57:02;;;;;;;4.00;3.60;;;;;;;21.79;58.17;99798.73;218686;1257;139489;-67
2023/08/24 18:02:06;;;;;;;4.70;2.90;;;;;;;21.39;58.67;99797.02;217814;1261;139827;-70
2023/08/24 18:07:09;;;;;;;11.40;4.40;;;;;;;21.15;59.59;99795.45;217874;1257;139074;-68
2023/08/24 18:12:12;;;;;;;9.60;4.10;;;;;;;21.00;60.02;99804.39;217914;1260;140192;-67
2023/08/24 18:17:17;;;;;;;4.80;4.40;;;;;;;20.79;60.29;99806.48;218425;1257;140646;-66
2023/08/24 18:22:19;;;;;;;27.40;8.20;;;;;;;20.45;60.57;99815.83;219404;1257;139389;-68
2023/08/24 18:27:23;;;;;;;8.20;4.70;;;;;;;20.25;61.33;99813.66;218678;1257;310804;-67
2023/08/24 18:32:27;;;;;;;4.00;2.80;;;;;;;20.19;61.99;99823.70;218165;1256;139833;-67
2023/08/24 18:37:29;;;;;;;3.50;3.20;;;;;;;20.02;62.12;99823.77;219954;1257;140510;-67
2023/08/24 18:42:32;;;;;;;4.20;3.40;;;;;;;19.87;62.47;99825.96;217672;1256;139785;-67
2023/08/24 18:47:35;;;;;;;4.00;3.70;;;;;;;19.79;62.72;99824.08;218881;1257;139702;-66
2023/08/24 18:52:38;;;;;;;5.00;3.40;;;;;;;19.63;62.96;99819.92;219657;1257;138937;-67
2023/08/24 18:57:41;;;;;;;10.70;5.60;;;;;;;19.44;63.12;99818.11;219163;1257;141847;-71
2023/08/24 19:02:45;;;;;;;54.90;14.10;;;;;;;19.22;63.70;99812.55;217780;1257;140166;-72
2023/08/24 19:07:49;;;;;;;19.30;10.30;;;;;;;19.16;64.35;99809.61;217719;1259;141208;-68
2023/08/24 19:12:53;;;;;;;11.60;8.20;;;;;;;19.07;64.69;99814.45;218127;1261;140641;-70
2023/08/24 19:17:57;;;;;;;8.00;5.10;;;;;;;18.89;64.94;99812.90;217512;1257;139940;-70
2023/08/24 19:23:04;;;;;;;9.40;3.40;;;;;;;18.67;65.50;99808.11;217813;1257;139307;-71
2023/08/24 19:28:09;;;;;;;8.50;3.60;;;;;;;18.58;66.13;99799.02;217513;1259;140575;-69
2023/08/24 19:33:13;;;;;;;4.10;3.20;;;;;;;18.44;66.37;99793.41;218019;1257;140673;-65
2023/08/24 19:38:17;;;;;;;11.90;4.00;;;;;;;18.29;66.90;99796.64;218184;1257;141016;-70
2023/08/24 19:43:22;;;;;;;5.20;3.10;;;;;;;18.16;67.37;99787.68;219088;1260;139733;-67
2023/08/24 19:48:30;;;;;;;5.40;3.50;;;;;;;18.04;67.76;99784.17;218035;1258;139669;-67
2023/08/24 19:53:34;;;;;;;6.40;3.50;;;;;;;17.99;68.11;99783.09;217981;1257;139445;-66
2023/08/24 19:58:38;;;;;;;5.20;4.30;;;;;;;17.96;68.32;99785.86;217781;1257;140123;-67
2023/08/24 20:03:41;;;;;;;8.20;3.40;;;;;;;17.92;68.47;99785.41;217491;1259;139503;-67
2023/08/24 20:08:46;;;;;;;5.20;3.50;;;;;;;17.72;68.55;99776.16;217525;1258;140232;-69
2023/08/24 20:13:50;;;;;;;10.00;3.60;;;;;;;17.54;69.10;99769.89;217776;1257;139826;-66
2023/08/24 20:18:53;;;;;;;4.70;4.10;;;;;;;17.39;69.56;99764.77;217895;1259;140647;-66
2023/08/24 20:23:56;;;;;;;6.00;4.10;;;;;;;17.25;69.89;99761.50;220037;1257;140354;-68
2023/08/24 20:29:00;;;;;;;4.40;3.80;;;;;;;17.17;70.24;99763.91;219291;1257;139850;-68
2023/08/24 20:34:04;;;;;;;6.80;4.20;;;;;;;17.09;70.56;99767.57;219096;1258;140355;-67
2023/08/24 20:39:09;;;;;;;6.70;3.90;;;;;;;17.08;70.79;99767.20;217923;1257;139976;-67
2023/08/24 20:44:12;;;;;;;12.00;3.50;;;;;;;17.03;70.89;99765.98;220180;1257;140336;-68
2023/08/24 20:49:14;;;;;;;6.60;4.30;;;;;;;16.95;71.18;99762.62;219725;1257;139653;-66
2023/08/24 20:54:17;;;;;;;4.80;4.40;;;;;;;16.85;71.30;99753.23;218737;1258;141056;-69
2023/08/24 20:59:20;;;;;;;3.50;3.30;;;;;;;16.78;71.83;99756.08;217553;1258;140030;-66
2023/08/24 21:04:22;;;;;;;4.20;2.90;;;;;;;16.77;71.95;99755.53;217757;1257;139997;-66
2023/08/24 21:09:25;;;;;;;8.20;4.80;;;;;;;16.64;72.15;99763.09;217667;1260;139951;-69
2023/08/24 21:14:27;;;;;;;8.70;4.40;;;;;;;16.58;72.50;99746.40;217924;1262;138947;-67
2023/08/24 21:19:30;;;;;;;10.40;4.10;;;;;;;16.58;72.76;99738.49;217468;1259;139507;-67
2023/08/24 21:24:34;;;;;;;8.70;4.50;;;;;;;16.53;72.78;99742.91;217483;1261;139685;-67
2023/08/24 21:29:41;;;;;;;8.70;4.70;;;;;;;16.45;73.01;99740.70;217389;1257;139743;-71
2023/08/24 21:34:45;;;;;;;5.80;4.20;;;;;;;16.40;73.18;99729.84;218338;1262;139836;-68
2023/08/24 21:39:48;;;;;;;5.70;4.00;;;;;;;16.28;73.36;99717.52;217658;1257;140607;-70
2023/08/24 21:44:52;;;;;;;5.60;4.30;;;;;;;16.24;73.71;99715.27;218496;1256;139345;-69
2023/08/24 21:49:56;;;;;;;7.50;5.80;;;;;;;16.22;73.91;99711.77;218073;1258;139764;-67
2023/08/24 21:55:00;;;;;;;16.10;6.90;;;;;;;16.20;74.00;99710.89;217621;1258;139823;-70
2023/08/24 22:00:04;;;;;;;13.70;6.80;;;;;;;16.20;74.29;99711.60;217861;1257;140393;-68
2023/08/24 22:05:08;;;;;;;11.60;7.20;;;;;;;16.20;74.42;99713.14;217842;1257;222245;-68
2023/08/24 22:10:10;;;;;;;12.30;7.50;;;;;;;16.09;74.38;99720.37;218760;1257;139787;-66
2023/08/24 22:15:13;;;;;;;16.10;8.00;;;;;;;16.04;74.75;99719.67;217803;1258;141631;-66
2023/08/24 22:20:17;;;;;;;13.20;6.30;;;;;;;15.99;74.75;99703.86;218874;1259;141180;-66
2023/08/24 22:25:23;;;;;;;18.70;7.20;;;;;;;15.88;74.99;99698.14;217841;1259;140005;-66
2023/08/24 22:30:27;;;;;;;17.90;6.70;;;;;;;15.86;75.35;99698.24;218601;1262;139340;-68
2023/08/24 22:35:31;;;;;;;13.70;6.30;;;;;;;15.86;75.57;99680.62;217657;1258;139932;-67
2023/08/24 22:40:34;;;;;;;13.60;8.40;;;;;;;15.84;75.56;99680.77;218546;1259;139881;-69
2023/08/24 22:45:39;;;;;;;13.80;6.80;;;;;;;15.81;75.69;99676.48;218104;1257;151675;-68
2023/08/24 22:50:42;;;;;;;10.00;6.50;;;;;;;15.79;75.76;99657.18;217396;1259;139836;-67
2023/08/24 22:55:46;;;;;;;9.00;6.50;;;;;;;15.72;75.72;99654.11;217954;1259;139799;-68
2023/08/24 23:00:49;;;;;;;11.10;6.50;;;;;;;15.62;76.08;99652.73;217096;1258;140760;-67
2023/08/24 23:05:53;;;;;;;9.20;6.60;;;;;;;15.55;76.08;99646.38;217351;1257;139990;-69